SVPL1: Red River at Shreveport Site 2

                                SHEF ID:       SVPL1     Red River at Shreveport Site 2
STATION TYPE:

PRECIP STAGE RIV-FLOW VOLTAGE
in ft cfs volt
Ccp-Rev Ccp-Rev Ccp-Rev Ccp-Rev
(America/Chicago)
06/29 00:00 0.00 24.73 75840 12.83
06/29 01:00 0.00 24.61 74880 12.82
06/29 02:00 0.00 24.60 74800 12.80
06/29 03:00 0.00 24.53 74240 12.79
06/29 04:00 0.00 24.42 73360 12.77
06/29 05:00 0.00 24.35 72800 12.76
06/29 06:00 0.00 24.34 72720 12.77
06/29 07:00 0.00 24.18 71440 12.96
06/29 08:00 0.00 24.22 71760 13.29
06/29 09:00 0.00 24.05 70400 13.07
06/29 10:00 0.00 23.99 69920 13.05
06/29 11:00 0.00 23.88 69040 13.07
06/29 12:00 0.00 23.87 68960 13.07
06/29 13:00 0.00 23.91 69280 13.07
06/29 14:00 0.00 23.84 68720 13.06
06/29 15:00 0.00 23.71 67680 13.06
06/29 16:00 0.00 23.71 67680 13.07
06/29 17:00 0.00 23.62 66960 13.09
06/29 18:00 0.00 23.56 66480 13.06
06/29 19:00 0.00 23.52 66160 12.91
06/29 20:00 0.00 23.45 65600 12.88
06/29 21:00 0.00 23.40 65200 12.86
06/29 22:00 0.00 23.26 64080 12.85
06/29 23:00 0.00 23.40 65200 12.86
Data processed at Tue 30Jun2026 04:24 GMT

NOTICE: If you are parsing this page

Please convert to using our Data API. Starting early 2026 we will be migrating to: https://water.usace.army.mil with modern pages rendered in JavaScript. When this migration completes you will no longer be able to scrape this page! CWMSDataAPI (CDA)

Timeseries IDs (TSIDs)

TSIDs used from left to right in the data table
SHRE.Precip-Inc.Total.1Hour.1Hour.Ccp-Rev
SHRE.Stage.Inst.1Hour.0.Ccp-Rev
SHRE.Flow.Inst.1Hour.0.Ccp-Rev
SHRE.Volt-Battery.Inst.1Hour.0.Ccp-Rev

                            

All information presented herein is the property of the government of the United States of America and may be revised or deleted at any time without prior notice. Dissemination of this information without the expressed written consent of the Public Affairs Office, Tulsa District U.S. Army Corps of Engineers is strictly prohibited. These data are gathered electronically and, as presented, have NOT undergone any form of quality control. These data are NOT guaranteed to be valid or correct.